Scarboro, Illinois
Current Conditions -  °F | °C
As of 5:15 PM on Thursday 27 Nov 2014 (Local Time) from KRPJ Reporting Station
Scattered Clouds Scattered Clouds  
Wind Chill:   Ceiling: Unl
Heat Index: 17°   Visibility: 10mi
Dew Point: 10°   Wind: 8mph
Humidity: 72%   Direction: 310°NW
Pressure: 30.42"   Gusts: NA
Location:  41.8255°N, 89.0204°W
Report Text: KRPJ 272315Z AUTO 31007KT 10SM SCT029 M08/M12 A3042 RMK AO2 T10811123
Loading
Personal Weather Stations






























Interactive Weather Map New forecast layout! Learn more

10-Day Weather Forecast

Advertisements
Track Severe Weather on mobile